Disclaimer

Please do not use the information listed here in-flight or in-navigation, as they are not provided to us by the airports but are provided by volunteers, so they might be outdated.

Search


Regions


Airport information page

No radio frequency information is available.

Airport informations:
Latitude: 39° 38' 59.84" S
Longitude: 073° 05' 10.00" W
Elevation: 59 feet - 18 meters
Operating hours: Remarks
Operating agency: Civil government, landing fees and diplomatic clearance may be required
Timezone: UTC-4(-3DT)
Fuel: N/A

Runway information:
17/35 - 6870 x 148 feet< - >2094 x 45 meters

Recent METARs:
SCVD 122100Z 24009KT CAVOK 20/11 Q1016
SCVD 122100Z 24009KT CAVOK 20/11 Q1016
SCVD 122200Z AUTO 22008KT 180V250 CAVOK 18/11 Q1017

Airport on the map: